createdAt,value
2023-09-06T00:01:06.341Z,90.45
2023-09-06T00:03:41.492Z,90.77
2023-09-06T00:06:12.207Z,90.45
2023-09-06T00:08:40.629Z,90.19
2023-09-06T00:11:09.607Z,90.21
2023-09-06T00:13:37.969Z,90.54
2023-09-06T00:16:08.468Z,91.23
2023-09-06T00:18:39.079Z,92.27
2023-09-06T00:21:07.864Z,91.25
2023-09-06T00:23:36.232Z,91.10
2023-09-06T00:26:04.746Z,91.46
2023-09-06T00:28:33.096Z,91.21
2023-09-06T00:31:01.694Z,91.66
2023-09-06T00:33:36.079Z,91.88
2023-09-06T00:36:06.619Z,92.77
2023-09-06T00:38:35.084Z,93.71
2023-09-06T00:41:05.223Z,93.37
2023-09-06T00:43:33.677Z,93.48
2023-09-06T00:46:07.832Z,93.51
2023-09-06T00:48:37.244Z,94.43
2023-09-06T00:51:08.241Z,94.43
2023-09-06T00:53:37.771Z,93.92
2023-09-06T00:56:10.287Z,94.08
2023-09-06T00:58:39.639Z,94.89
2023-09-06T01:01:09.118Z,94.17
2023-09-06T01:03:43.033Z,94.66
2023-09-06T01:06:31.440Z,94.21
2023-09-06T01:09:00.570Z,95.14
2023-09-06T01:11:29.092Z,95.79
2023-09-06T01:14:01.067Z,95.37
2023-09-06T01:16:34.044Z,95.72
2023-09-06T01:19:02.993Z,95.09
2023-09-06T01:22:24.094Z,96.28
2023-09-06T01:24:52.922Z,96.19
2023-09-06T01:27:21.967Z,96.79
2023-09-06T01:29:50.467Z,96.63
2023-09-06T01:32:18.813Z,96.11
2023-09-06T01:34:47.299Z,95.41
2023-09-06T01:37:16.825Z,95.76
2023-09-06T01:39:45.356Z,95.31
2023-09-06T01:42:14.039Z,95.24
2023-09-06T01:44:42.621Z,95.55
2023-09-06T01:47:11.855Z,96.59
2023-09-06T01:49:40.339Z,96.56
2023-09-06T01:52:08.781Z,96.90
2023-09-06T01:54:37.280Z,96.91
2023-09-06T01:57:07.711Z,96.86
2023-09-06T01:59:36.076Z,96.07
2023-09-06T02:02:05.885Z,97.44
2023-09-06T02:04:34.487Z,96.79
2023-09-06T02:07:04.021Z,96.80
2023-09-06T02:09:32.570Z,96.41
2023-09-06T02:12:02.370Z,96.53
2023-09-06T02:14:30.826Z,96.87
2023-09-06T02:16:59.703Z,96.61
2023-09-06T02:19:34.727Z,97.11
2023-09-06T02:22:03.592Z,97.83
2023-09-06T02:24:32.150Z,97.11
2023-09-06T02:27:01.325Z,96.89
2023-09-06T02:29:29.889Z,96.73
2023-09-06T02:31:58.750Z,97.08
2023-09-06T02:34:27.494Z,96.88
2023-09-06T02:36:57.061Z,96.82
2023-09-06T02:39:29.390Z,97.60
2023-09-06T02:42:00.737Z,97.12
2023-09-06T02:44:29.078Z,97.97
2023-09-06T02:46:57.399Z,97.33
2023-09-06T02:49:28.679Z,97.73
2023-09-06T02:51:58.136Z,97.88
2023-09-06T02:54:29.904Z,97.59
2023-09-06T02:56:58.813Z,97.93
2023-09-06T02:59:29.705Z,98.75
2023-09-06T03:02:00.474Z,97.62
2023-09-06T03:04:34.790Z,98.19
2023-09-06T03:07:09.748Z,98.18
2023-09-06T03:09:40.283Z,97.86
2023-09-06T03:12:15.913Z,97.98
2023-09-06T03:14:46.143Z,97.21
2023-09-06T03:17:19.577Z,97.36
2023-09-06T03:20:01.048Z,97.34
2023-09-06T03:22:29.877Z,98.06
2023-09-06T03:24:58.447Z,98.21
2023-09-06T03:27:29.706Z,97.88
2023-09-06T03:29:58.957Z,98.79
2023-09-06T03:32:29.760Z,98.68
2023-09-06T03:34:58.352Z,98.97
2023-09-06T03:37:29.941Z,98.94
2023-09-06T03:39:58.483Z,98.74
2023-09-06T03:42:27.968Z,99.37
2023-09-06T03:44:57.208Z,99.17
2023-09-06T03:47:25.731Z,99.19
2023-09-06T03:49:54.374Z,98.88
2023-09-06T03:52:27.995Z,98.37
2023-09-06T03:55:00.431Z,98.83
2023-09-06T03:57:28.933Z,98.76
2023-09-06T04:03:42.189Z,99.51
2023-09-06T04:06:20.280Z,99.60
2023-09-06T04:08:49.622Z,98.61
2023-09-06T04:11:21.254Z,99.07
2023-09-06T04:13:52.349Z,99.07
2023-09-06T04:16:24.121Z,98.99
2023-09-06T04:18:53.959Z,98.87
2023-09-06T04:21:23.625Z,98.49
2023-09-06T04:23:52.164Z,98.07
2023-09-06T04:26:21.834Z,98.17
2023-09-06T04:28:50.630Z,97.31
2023-09-06T04:31:19.783Z,97.24
2023-09-06T04:33:49.613Z,96.78
2023-09-06T04:36:27.004Z,96.66
2023-09-06T04:39:01.469Z,96.46
2023-09-06T04:41:32.648Z,96.20
2023-09-06T04:44:04.495Z,95.68
2023-09-06T04:46:33.315Z,95.69
2023-09-06T04:49:02.472Z,95.26
2023-09-06T04:51:32.379Z,94.95
2023-09-06T04:54:03.085Z,94.64
2023-09-06T04:56:35.871Z,93.77
2023-09-06T04:59:04.472Z,93.06
2023-09-06T05:01:33.218Z,92.45
2023-09-06T05:04:02.124Z,92.01
2023-09-06T05:06:31.465Z,91.08
2023-09-06T05:09:00.263Z,90.98
2023-09-06T05:11:29.170Z,91.19
2023-09-06T05:13:57.845Z,90.96
2023-09-06T05:16:28.039Z,91.04
2023-09-06T05:18:56.936Z,90.90
2023-09-06T05:21:28.197Z,90.96
2023-09-06T05:23:58.180Z,91.20
2023-09-06T05:26:28.113Z,90.83
2023-09-06T05:28:56.694Z,90.23
2023-09-06T05:35:05.792Z,88.92
2023-09-06T05:37:35.075Z,89.09
2023-09-06T05:40:05.417Z,88.59
2023-09-06T05:42:34.054Z,87.91
2023-09-06T05:45:02.957Z,86.79
2023-09-06T05:47:31.961Z,86.15
2023-09-06T05:50:00.763Z,86.70
2023-09-06T05:52:30.071Z,86.17
2023-09-06T05:55:03.252Z,86.30
2023-09-06T05:57:36.235Z,85.89
2023-09-06T06:00:14.235Z,84.99
2023-09-06T06:02:48.226Z,83.42
2023-09-06T06:05:20.108Z,81.99
2023-09-06T06:07:49.483Z,81.77
2023-09-06T06:10:18.592Z,80.07
2023-09-06T06:12:47.518Z,79.09
2023-09-06T06:15:16.649Z,78.52
2023-09-06T06:17:45.215Z,79.94
2023-09-06T06:20:15.975Z,80.22
2023-09-06T06:22:44.709Z,78.91
2023-09-06T06:25:13.552Z,79.03
2023-09-06T06:27:42.222Z,78.53
2023-09-06T06:30:12.576Z,77.43
2023-09-06T06:32:41.453Z,75.72
2023-09-06T06:35:13.363Z,75.29
2023-09-06T06:37:42.039Z,75.69
2023-09-06T06:40:11.424Z,73.24
2023-09-06T06:42:40.690Z,73.56
2023-09-06T06:45:11.814Z,73.69
2023-09-06T06:47:40.606Z,74.56
2023-09-06T06:50:10.423Z,72.25
2023-09-06T06:52:45.524Z,71.75
2023-09-06T06:55:14.528Z,70.71
2023-09-06T07:11:40.993Z,69.60
2023-09-06T07:14:09.640Z,68.91
2023-09-06T07:16:40.182Z,68.13
2023-09-06T07:19:08.849Z,67.29
2023-09-06T07:21:37.338Z,67.29
2023-09-06T07:24:06.281Z,67.45
2023-09-06T07:26:35.037Z,66.11
2023-09-06T07:29:04.577Z,66.87
2023-09-06T07:31:33.911Z,67.18
2023-09-06T07:34:02.560Z,67.81
2023-09-06T07:36:31.193Z,67.54
2023-09-06T07:38:59.719Z,67.18
2023-09-06T07:41:28.357Z,65.60
2023-09-06T07:43:57.153Z,66.56
2023-09-06T07:46:28.228Z,65.42
2023-09-06T07:48:57.185Z,66.02
2023-09-06T07:51:26.092Z,66.00
2023-09-06T07:53:55.142Z,66.13
2023-09-06T07:56:24.002Z,65.76
2023-09-06T07:58:52.588Z,64.78
2023-09-06T08:01:21.275Z,64.20
2023-09-06T08:03:50.052Z,63.43
2023-09-06T08:06:18.938Z,64.46
2023-09-06T08:08:47.967Z,64.08
2023-09-06T08:11:19.881Z,63.88
2023-09-06T08:13:48.516Z,63.54
2023-09-06T08:16:17.955Z,63.21
2023-09-06T08:18:47.894Z,62.34
2023-09-06T08:21:20.551Z,62.08
2023-09-06T08:23:49.355Z,61.99
2023-09-06T08:26:17.877Z,61.71
2023-09-06T08:28:47.030Z,61.62
2023-09-06T08:31:15.766Z,61.02
2023-09-06T08:33:44.567Z,60.97
2023-09-06T08:36:13.488Z,59.40
2023-09-06T08:38:43.190Z,58.84
2023-09-06T08:41:11.723Z,58.65
2023-09-06T08:43:44.605Z,57.71
2023-09-06T08:46:25.159Z,54.94
2023-09-06T08:48:54.407Z,54.41
2023-09-06T08:51:23.427Z,53.06
2023-09-06T08:53:53.955Z,52.91
2023-09-06T08:56:22.532Z,52.68
2023-09-06T08:58:51.114Z,51.37
2023-09-06T09:01:19.879Z,51.40
2023-09-06T09:03:51.140Z,51.96
2023-09-06T09:06:19.920Z,49.62
2023-09-06T09:08:48.813Z,49.10
2023-09-06T09:11:20.571Z,49.60
2023-09-06T09:13:49.336Z,50.28
2023-09-06T09:16:18.718Z,49.76
2023-09-06T09:18:48.910Z,48.85
2023-09-06T09:21:45.068Z,46.70
2023-09-06T09:24:13.940Z,46.15
2023-09-06T09:26:44.250Z,47.48
2023-09-06T09:29:13.752Z,46.91
2023-09-06T09:31:42.433Z,44.15
2023-09-06T09:34:13.215Z,41.46
2023-09-06T09:36:49.390Z,40.99
2023-09-06T09:39:19.862Z,40.74
2023-09-06T09:41:58.889Z,40.19
2023-09-06T09:44:28.801Z,39.73
2023-09-06T09:46:58.781Z,39.63
2023-09-06T09:49:27.901Z,39.64
2023-09-06T09:51:56.481Z,39.85
2023-09-06T09:54:27.021Z,39.41
2023-09-06T09:57:07.025Z,38.99
2023-09-06T09:59:40.031Z,39.68
2023-09-06T10:02:22.464Z,39.27
2023-09-06T10:04:57.569Z,38.71
2023-09-06T10:11:17.056Z,39.30
2023-09-06T10:13:46.684Z,39.02
2023-09-06T10:16:15.746Z,37.74
2023-09-06T10:18:44.682Z,37.70
2023-09-06T10:21:14.926Z,38.30
2023-09-06T10:23:44.669Z,38.39
2023-09-06T10:26:13.377Z,38.76
2023-09-06T10:28:41.854Z,38.88
2023-09-06T10:31:13.875Z,39.26
2023-09-06T10:34:02.882Z,38.56
2023-09-06T10:36:50.673Z,39.09
2023-09-06T10:39:22.621Z,38.88
2023-09-06T10:42:10.019Z,38.39
2023-09-06T10:45:11.941Z,38.18
2023-09-06T10:47:42.595Z,38.59
2023-09-06T10:50:14.201Z,38.71
2023-09-06T10:53:00.077Z,38.38
2023-09-06T10:55:43.601Z,38.73
2023-09-06T10:58:14.155Z,38.11
2023-09-06T11:00:43.844Z,38.58
2023-09-06T11:03:19.243Z,38.54
2023-09-06T11:05:54.899Z,37.86
2023-09-06T11:08:27.630Z,37.42
2023-09-06T11:11:16.729Z,36.74
2023-09-06T11:13:46.490Z,36.79
2023-09-06T11:16:17.280Z,37.29
2023-09-06T11:18:51.579Z,37.60
2023-09-06T11:21:21.935Z,36.87
2023-09-06T11:23:53.095Z,36.09
2023-09-06T11:26:21.910Z,35.33
2023-09-06T11:29:01.810Z,35.39
2023-09-06T11:31:34.742Z,35.68
2023-09-06T11:34:07.140Z,35.71
2023-09-06T11:36:38.300Z,34.95
2023-09-06T11:39:19.961Z,34.91
2023-09-06T11:41:49.746Z,34.09
2023-09-06T11:44:20.692Z,33.55
2023-09-06T11:46:50.268Z,33.71
2023-09-06T11:49:22.834Z,34.63
2023-09-06T11:51:55.397Z,34.13
2023-09-06T11:54:28.587Z,33.69
2023-09-06T11:56:59.092Z,32.52
2023-09-06T11:59:30.338Z,32.81
2023-09-06T12:02:02.347Z,32.27
2023-09-06T12:04:33.577Z,32.10
2023-09-06T12:07:04.111Z,32.29
2023-09-06T12:09:34.401Z,31.82
2023-09-06T12:12:08.097Z,31.21
2023-09-06T12:14:37.989Z,31.33
2023-09-06T12:17:07.703Z,30.95
2023-09-06T12:19:36.346Z,30.73
2023-09-06T12:22:06.783Z,31.25
2023-09-06T12:24:35.334Z,31.01
2023-09-06T12:27:05.129Z,30.87
2023-09-06T12:29:33.854Z,30.78
2023-09-06T12:32:06.065Z,30.88
2023-09-06T12:34:34.787Z,30.74
2023-09-06T12:37:04.185Z,30.25
2023-09-06T12:39:32.875Z,30.87
2023-09-06T12:42:01.556Z,31.12
2023-09-06T12:44:30.303Z,31.24
2023-09-06T12:46:59.074Z,31.64
2023-09-06T12:49:27.820Z,31.70
2023-09-06T12:51:56.475Z,32.02
2023-09-06T12:54:25.355Z,31.83
2023-09-06T12:56:54.179Z,31.44
2023-09-06T12:59:22.955Z,30.95
2023-09-06T13:01:51.495Z,30.64
2023-09-06T13:04:21.306Z,30.63
2023-09-06T13:06:50.178Z,29.70
2023-09-06T13:09:18.767Z,29.87
2023-09-06T13:11:47.371Z,29.98
2023-09-06T13:14:24.025Z,29.81
2023-09-06T13:16:54.517Z,30.11
2023-09-06T13:19:23.387Z,30.77
2023-09-06T13:21:52.110Z,31.45
2023-09-06T13:24:20.712Z,31.08
2023-09-06T13:26:51.341Z,31.11
2023-09-06T13:29:20.306Z,30.78
2023-09-06T13:31:49.155Z,31.88
2023-09-06T13:34:18.371Z,32.30
2023-09-06T13:36:48.049Z,32.25
2023-09-06T13:39:18.612Z,32.42
2023-09-06T13:41:48.601Z,32.67
2023-09-06T13:44:17.477Z,32.99
2023-09-06T13:46:49.006Z,33.36
2023-09-06T13:49:17.651Z,33.12
2023-09-06T13:51:46.639Z,33.08
2023-09-06T13:54:15.122Z,33.62
2023-09-06T13:56:44.163Z,34.00
2023-09-06T13:59:12.764Z,34.40
2023-09-06T14:01:42.426Z,34.54
2023-09-06T14:04:11.589Z,35.02
2023-09-06T14:06:40.298Z,35.11
2023-09-06T14:09:12.178Z,35.24
2023-09-06T14:11:40.657Z,35.20
2023-09-06T14:14:09.853Z,34.46
2023-09-06T14:16:38.624Z,34.23
2023-09-06T14:34:35.150Z,32.05
2023-09-06T14:37:04.263Z,31.93
2023-09-06T14:39:34.218Z,32.05
2023-09-06T14:42:01.771Z,32.25
2023-09-06T14:44:29.198Z,32.16
2023-09-06T14:46:56.787Z,31.96
2023-09-06T14:49:24.137Z,32.20
2023-09-06T14:51:51.721Z,32.53
2023-09-06T14:54:19.030Z,32.57
2023-09-06T14:56:46.405Z,32.01
2023-09-06T14:59:13.840Z,31.95
2023-09-06T15:01:41.320Z,31.95
2023-09-06T15:04:09.039Z,31.93
2023-09-06T15:06:52.524Z,32.46
2023-09-06T15:09:24.872Z,32.20
2023-09-06T15:11:53.579Z,32.09
2023-09-06T15:14:21.160Z,32.02
2023-09-06T15:16:49.053Z,31.77
2023-09-06T15:19:16.550Z,32.09
2023-09-06T15:21:44.070Z,32.66
2023-09-06T15:24:12.970Z,32.67
2023-09-06T15:26:40.479Z,32.48
2023-09-06T15:29:07.827Z,32.40
2023-09-06T15:31:35.280Z,32.19
2023-09-06T15:34:03.908Z,32.56
2023-09-06T15:36:31.644Z,32.76
2023-09-06T15:38:59.997Z,33.19
2023-09-06T15:41:32.590Z,33.27
2023-09-06T15:44:02.902Z,33.45
2023-09-06T15:46:30.991Z,33.70
2023-09-06T15:49:01.942Z,33.95
2023-09-06T15:51:29.391Z,34.32
2023-09-06T15:57:03.496Z,34.78
2023-09-06T15:59:32.778Z,35.05
2023-09-06T16:02:01.608Z,35.30
2023-09-06T16:04:30.663Z,35.57
2023-09-06T16:06:59.448Z,35.92
2023-09-06T16:09:28.166Z,36.27
2023-09-06T16:11:57.917Z,36.71
2023-09-06T16:14:27.212Z,36.74
2023-09-06T16:16:58.392Z,36.99
2023-09-06T16:19:27.801Z,37.36
2023-09-06T16:21:56.470Z,37.52
2023-09-06T16:24:25.142Z,37.70
2023-09-06T16:26:56.151Z,37.80
2023-09-06T16:29:24.732Z,38.01
2023-09-06T16:31:53.331Z,38.24
2023-09-06T16:34:22.166Z,38.34
2023-09-06T16:36:51.020Z,38.42
2023-09-06T16:39:19.700Z,38.61
2023-09-06T16:41:48.332Z,38.90
2023-09-06T16:44:17.346Z,39.09
2023-09-06T16:46:46.801Z,39.32
2023-09-06T16:49:15.661Z,39.42
2023-09-06T16:51:44.829Z,39.61
2023-09-06T16:54:14.397Z,39.77
2023-09-06T16:56:43.188Z,40.04
2023-09-06T16:59:12.024Z,40.27
2023-09-06T17:01:40.797Z,40.41
2023-09-06T17:04:09.798Z,40.69
2023-09-06T17:06:38.557Z,40.96
2023-09-06T17:09:10.263Z,41.38
2023-09-06T17:11:44.822Z,41.48
2023-09-06T17:14:13.646Z,41.90
2023-09-06T17:16:42.791Z,41.98
2023-09-06T17:19:11.683Z,42.54
2023-09-06T17:21:41.111Z,42.41
2023-09-06T17:24:10.238Z,42.95
2023-09-06T17:26:41.125Z,43.24
2023-09-06T17:29:16.099Z,43.49
2023-09-06T17:31:47.719Z,43.45
2023-09-06T17:34:16.805Z,43.77
2023-09-06T17:36:45.715Z,44.20
2023-09-06T17:39:14.640Z,44.25
2023-09-06T17:41:43.495Z,44.51
2023-09-06T17:44:13.302Z,45.79
2023-09-06T17:46:42.991Z,46.88
2023-09-06T17:49:12.296Z,46.72
2023-09-06T17:51:41.237Z,47.41
2023-09-06T17:54:09.673Z,45.84
2023-09-06T17:56:38.184Z,46.90
2023-09-06T17:59:08.551Z,49.05
2023-09-06T18:01:37.540Z,48.88
2023-09-06T18:04:11.473Z,49.85
2023-09-06T18:06:41.600Z,49.21
2023-09-06T18:13:11.843Z,50.63
2023-09-06T18:15:39.206Z,54.50
2023-09-06T18:18:13.942Z,55.54
2023-09-06T18:20:44.123Z,57.72
2023-09-06T18:23:11.932Z,58.39
2023-09-06T18:25:40.862Z,59.06
2023-09-06T18:28:11.258Z,60.29
2023-09-06T18:30:45.451Z,61.30
2023-09-06T18:33:14.403Z,61.11
2023-09-06T18:35:45.806Z,62.37
2023-09-06T18:38:16.789Z,62.42
2023-09-06T18:40:46.522Z,64.20
2023-09-06T18:43:16.553Z,63.85
2023-09-06T18:45:45.189Z,64.46
2023-09-06T18:48:20.509Z,64.81
2023-09-06T18:50:50.066Z,64.43
2023-09-06T18:53:21.045Z,64.54
2023-09-06T18:55:50.601Z,65.30
2023-09-06T18:58:21.729Z,66.25
2023-09-06T19:00:49.001Z,66.11
2023-09-06T19:03:16.281Z,66.50
2023-09-06T19:05:43.937Z,66.34
2023-09-06T19:08:12.620Z,66.66
2023-09-06T19:10:42.936Z,67.64
2023-09-06T19:13:14.233Z,67.55
2023-09-06T19:15:43.579Z,67.68
2023-09-06T19:18:15.915Z,67.97
2023-09-06T19:20:42.950Z,69.16
2023-09-06T19:23:17.301Z,69.97
2023-09-06T19:25:52.046Z,71.07
2023-09-06T19:28:19.632Z,72.06
2023-09-06T19:30:52.130Z,72.04
2023-09-06T19:33:19.514Z,72.80
2023-09-06T19:35:46.644Z,72.40
2023-09-06T19:38:14.502Z,72.39
2023-09-06T19:40:41.949Z,73.67
2023-09-06T19:43:09.080Z,74.05
2023-09-06T19:45:36.125Z,74.31
2023-09-06T19:48:06.102Z,74.55
2023-09-06T19:50:33.342Z,74.12
2023-09-06T19:53:00.984Z,74.66
2023-09-06T19:55:29.963Z,75.21
2023-09-06T19:57:57.102Z,75.63
2023-09-06T20:00:24.453Z,75.81
2023-09-06T20:02:52.580Z,77.19
2023-09-06T20:05:20.153Z,76.90
2023-09-06T20:07:47.406Z,76.93
2023-09-06T20:10:14.886Z,77.14
2023-09-06T20:12:44.307Z,76.92
2023-09-06T20:15:18.373Z,76.96
2023-09-06T20:17:47.092Z,77.37
2023-09-06T20:20:23.638Z,77.19
2023-09-06T20:22:51.122Z,77.55
2023-09-06T20:25:18.525Z,77.88
2023-09-06T20:27:46.776Z,77.52
2023-09-06T20:30:16.252Z,78.09
2023-09-06T20:32:43.460Z,78.74
2023-09-06T20:35:10.721Z,79.31
2023-09-06T20:37:37.903Z,79.64
2023-09-06T20:40:06.430Z,80.06
2023-09-06T20:42:33.637Z,80.71
2023-09-06T20:45:00.846Z,81.14
2023-09-06T20:47:28.351Z,81.21
2023-09-06T20:50:00.906Z,81.74
2023-09-06T20:54:11.819Z,81.99
2023-09-06T20:56:39.652Z,83.05
2023-09-06T20:59:07.099Z,81.93
2023-09-06T21:01:34.405Z,82.91
2023-09-06T21:04:03.173Z,82.03
2023-09-06T21:06:31.710Z,82.14
2023-09-06T21:08:59.970Z,82.62
2023-09-06T21:11:27.206Z,83.10
2023-09-06T21:13:54.400Z,81.94
2023-09-06T21:16:21.626Z,83.16
2023-09-06T21:18:48.915Z,82.76
2023-09-06T21:21:15.971Z,83.56
2023-09-06T21:23:43.089Z,83.55
2023-09-06T21:26:10.618Z,82.98
2023-09-06T21:28:38.032Z,83.83
2023-09-06T21:31:05.238Z,83.57
2023-09-06T21:33:32.820Z,83.71
2023-09-06T21:36:00.398Z,84.21
2023-09-06T21:38:28.700Z,84.57
2023-09-06T21:40:57.537Z,84.77
2023-09-06T21:43:25.676Z,84.80
2023-09-06T21:45:55.322Z,84.67
2023-09-06T21:48:24.425Z,84.33
2023-09-06T21:51:07.011Z,85.19
2023-09-06T21:53:34.108Z,85.28
2023-09-06T21:56:01.508Z,85.03
2023-09-06T21:58:29.122Z,85.11
2023-09-06T22:01:15.287Z,84.61
2023-09-06T22:04:00.960Z,84.98
2023-09-06T22:06:46.768Z,84.63
2023-09-06T22:09:32.458Z,85.04
2023-09-06T22:12:18.026Z,84.95
2023-09-06T22:14:45.868Z,84.99
2023-09-06T22:17:13.146Z,85.17
2023-09-06T22:23:26.896Z,85.39
2023-09-06T22:26:00.299Z,85.92
2023-09-06T22:28:33.329Z,85.97
2023-09-06T22:31:03.118Z,86.56
2023-09-06T22:33:31.859Z,86.05
2023-09-06T22:36:01.638Z,85.71
2023-09-06T22:38:30.650Z,86.53
2023-09-06T22:40:59.418Z,86.82
2023-09-06T22:43:28.151Z,86.76
2023-09-06T22:45:56.865Z,87.16
2023-09-06T22:48:25.512Z,87.14
2023-09-06T22:50:54.637Z,87.62
2023-09-06T22:53:23.997Z,87.24
2023-09-06T22:55:52.721Z,87.02
2023-09-06T22:58:21.369Z,87.51
2023-09-06T23:00:50.140Z,87.88
2023-09-06T23:03:18.949Z,88.32
2023-09-06T23:05:48.161Z,88.33
2023-09-06T23:08:16.735Z,88.57
2023-09-06T23:10:45.524Z,89.05
2023-09-06T23:13:17.382Z,88.66
2023-09-06T23:15:48.366Z,88.60
2023-09-06T23:18:21.566Z,88.26
2023-09-06T23:20:52.491Z,88.50
2023-09-06T23:23:22.751Z,88.82
2023-09-06T23:25:53.733Z,88.80
2023-09-06T23:28:22.938Z,89.09
2023-09-06T23:31:01.332Z,89.27
2023-09-06T23:33:44.483Z,89.89
2023-09-06T23:36:18.863Z,90.22
2023-09-06T23:38:50.410Z,90.02
2023-09-06T23:41:20.733Z,89.96
2023-09-06T23:43:50.523Z,90.20
2023-09-06T23:46:20.804Z,89.73
2023-09-06T23:48:49.714Z,89.90
2023-09-06T23:51:18.255Z,90.33
2023-09-06T23:53:46.913Z,90.64
2023-09-06T23:56:15.640Z,91.06
2023-09-06T23:58:44.456Z,90.93
